TAF PAWG
PAWG 081727Z 0818/0918 VRB03KT 6SM -SHSN SCT008 BKN020 OVC035 AMD LTD TO CLD VIS AND WIND 0906/0915=
METAR PAWG
WC PAWG
WS PAWG
WV PAWG